sensor_id;sensor_type;location;lat;lon;timestamp;temperature;humidity
64888;DHT22;51386;53.082;8.816;2023-03-01T00:00:19;6.30;53.20
64888;DHT22;51386;53.082;8.816;2023-03-01T00:02:46;6.20;53.50
64888;DHT22;51386;53.082;8.816;2023-03-01T00:05:13;6.10;53.60
64888;DHT22;51386;53.082;8.816;2023-03-01T00:07:40;6.10;54.20
64888;DHT22;51386;53.082;8.816;2023-03-01T00:10:09;6.10;54.30
64888;DHT22;51386;53.082;8.816;2023-03-01T00:12:37;6.10;54.10
64888;DHT22;51386;53.082;8.816;2023-03-01T00:15:06;6.10;54.10
64888;DHT22;51386;53.082;8.816;2023-03-01T00:17:34;6.20;54.20
64888;DHT22;51386;53.082;8.816;2023-03-01T00:20:01;6.20;53.80
64888;DHT22;51386;53.082;8.816;2023-03-01T00:22:28;6.10;53.80
64888;DHT22;51386;53.082;8.816;2023-03-01T00:24:55;6.10;53.70
64888;DHT22;51386;53.082;8.816;2023-03-01T00:27:22;6.10;53.30
64888;DHT22;51386;53.082;8.816;2023-03-01T00:29:49;6.00;53.00
64888;DHT22;51386;53.082;8.816;2023-03-01T00:32:17;5.90;53.40
64888;DHT22;51386;53.082;8.816;2023-03-01T00:34:44;5.90;53.90
64888;DHT22;51386;53.082;8.816;2023-03-01T00:37:20;5.80;54.60
64888;DHT22;51386;53.082;8.816;2023-03-01T00:39:48;5.70;54.40
64888;DHT22;51386;53.082;8.816;2023-03-01T00:42:15;5.70;54.70
64888;DHT22;51386;53.082;8.816;2023-03-01T00:44:43;5.70;55.00
64888;DHT22;51386;53.082;8.816;2023-03-01T00:47:10;5.80;55.30
64888;DHT22;51386;53.082;8.816;2023-03-01T00:49:38;5.80;55.30
64888;DHT22;51386;53.082;8.816;2023-03-01T00:52:05;5.80;55.10
64888;DHT22;51386;53.082;8.816;2023-03-01T00:54:32;5.80;54.80
64888;DHT22;51386;53.082;8.816;2023-03-01T00:56:59;5.80;54.80
64888;DHT22;51386;53.082;8.816;2023-03-01T00:59:26;5.80;54.90
64888;DHT22;51386;53.082;8.816;2023-03-01T01:01:53;5.80;55.10
64888;DHT22;51386;53.082;8.816;2023-03-01T01:04:20;5.80;55.10
64888;DHT22;51386;53.082;8.816;2023-03-01T01:06:48;5.80;54.90
64888;DHT22;51386;53.082;8.816;2023-03-01T01:09:16;5.80;55.00
64888;DHT22;51386;53.082;8.816;2023-03-01T01:11:45;5.80;55.10
64888;DHT22;51386;53.082;8.816;2023-03-01T01:14:13;5.80;55.00
64888;DHT22;51386;53.082;8.816;2023-03-01T01:16:41;5.80;54.90
64888;DHT22;51386;53.082;8.816;2023-03-01T01:19:09;5.80;54.80
64888;DHT22;51386;53.082;8.816;2023-03-01T01:21:36;5.80;54.70
64888;DHT22;51386;53.082;8.816;2023-03-01T01:24:05;5.80;55.00
64888;DHT22;51386;53.082;8.816;2023-03-01T01:26:33;5.80;55.00
64888;DHT22;51386;53.082;8.816;2023-03-01T01:29:02;5.70;55.00
64888;DHT22;51386;53.082;8.816;2023-03-01T01:31:31;5.70;55.30
64888;DHT22;51386;53.082;8.816;2023-03-01T01:34:00;5.70;55.00
64888;DHT22;51386;53.082;8.816;2023-03-01T01:36:28;5.60;54.70
64888;DHT22;51386;53.082;8.816;2023-03-01T01:38:56;5.60;55.20
64888;DHT22;51386;53.082;8.816;2023-03-01T01:41:26;5.50;55.40
64888;DHT22;51386;53.082;8.816;2023-03-01T01:44:13;5.60;55.40
64888;DHT22;51386;53.082;8.816;2023-03-01T01:46:45;5.60;55.40
64888;DHT22;51386;53.082;8.816;2023-03-01T01:49:27;5.70;54.70
64888;DHT22;51386;53.082;8.816;2023-03-01T01:52:04;5.60;54.30
64888;DHT22;51386;53.082;8.816;2023-03-01T01:54:41;5.50;54.40
64888;DHT22;51386;53.082;8.816;2023-03-01T01:57:16;5.40;55.10
64888;DHT22;51386;53.082;8.816;2023-03-01T01:59:50;5.30;55.00
64888;DHT22;51386;53.082;8.816;2023-03-01T02:02:21;5.20;55.30
64888;DHT22;51386;53.082;8.816;2023-03-01T02:04:48;5.00;55.70
64888;DHT22;51386;53.082;8.816;2023-03-01T02:07:22;4.90;56.00
64888;DHT22;51386;53.082;8.816;2023-03-01T02:09:51;4.80;56.40
64888;DHT22;51386;53.082;8.816;2023-03-01T02:12:23;4.70;56.90
64888;DHT22;51386;53.082;8.816;2023-03-01T02:14:51;4.70;57.10
64888;DHT22;51386;53.082;8.816;2023-03-01T02:17:18;4.60;57.40
64888;DHT22;51386;53.082;8.816;2023-03-01T02:19:57;4.50;57.60
64888;DHT22;51386;53.082;8.816;2023-03-01T02:22:35;4.50;57.90
64888;DHT22;51386;53.082;8.816;2023-03-01T02:25:12;4.40;58.00
64888;DHT22;51386;53.082;8.816;2023-03-01T02:28:05;4.30;58.30
64888;DHT22;51386;53.082;8.816;2023-03-01T02:30:40;4.20;58.60
64888;DHT22;51386;53.082;8.816;2023-03-01T02:33:28;4.20;59.00
64888;DHT22;51386;53.082;8.816;2023-03-01T02:36:00;4.20;59.40
64888;DHT22;51386;53.082;8.816;2023-03-01T02:38:31;4.10;59.40
64888;DHT22;51386;53.082;8.816;2023-03-01T02:40:59;4.10;59.50
64888;DHT22;51386;53.082;8.816;2023-03-01T02:43:32;4.10;59.80
64888;DHT22;51386;53.082;8.816;2023-03-01T02:46:04;4.00;59.70
64888;DHT22;51386;53.082;8.816;2023-03-01T02:48:43;4.00;59.80
64888;DHT22;51386;53.082;8.816;2023-03-01T02:51:23;4.00;61.20
64888;DHT22;51386;53.082;8.816;2023-03-01T02:54:08;4.10;61.20
64888;DHT22;51386;53.082;8.816;2023-03-01T02:56:41;4.30;61.10
64888;DHT22;51386;53.082;8.816;2023-03-01T02:59:10;4.40;60.50
64888;DHT22;51386;53.082;8.816;2023-03-01T03:01:39;4.60;59.90
64888;DHT22;51386;53.082;8.816;2023-03-01T03:04:09;4.60;59.80
64888;DHT22;51386;53.082;8.816;2023-03-01T03:06:43;4.70;59.70
64888;DHT22;51386;53.082;8.816;2023-03-01T03:09:11;4.80;59.30
64888;DHT22;51386;53.082;8.816;2023-03-01T03:11:42;4.90;59.20
64888;DHT22;51386;53.082;8.816;2023-03-01T03:14:11;5.00;58.90
64888;DHT22;51386;53.082;8.816;2023-03-01T03:16:42;5.10;58.40
64888;DHT22;51386;53.082;8.816;2023-03-01T03:19:11;5.10;58.10
64888;DHT22;51386;53.082;8.816;2023-03-01T03:21:38;5.00;58.60
64888;DHT22;51386;53.082;8.816;2023-03-01T03:24:05;5.00;58.80
64888;DHT22;51386;53.082;8.816;2023-03-01T03:26:32;5.00;58.50
64888;DHT22;51386;53.082;8.816;2023-03-01T03:28:59;5.00;58.50
64888;DHT22;51386;53.082;8.816;2023-03-01T03:31:27;4.90;59.00
64888;DHT22;51386;53.082;8.816;2023-03-01T03:33:55;4.80;59.50
64888;DHT22;51386;53.082;8.816;2023-03-01T03:36:24;4.80;59.80
64888;DHT22;51386;53.082;8.816;2023-03-01T03:38:51;4.70;60.00
64888;DHT22;51386;53.082;8.816;2023-03-01T03:41:18;4.70;60.40
64888;DHT22;51386;53.082;8.816;2023-03-01T03:43:45;4.70;60.40
64888;DHT22;51386;53.082;8.816;2023-03-01T03:46:12;4.60;60.90
64888;DHT22;51386;53.082;8.816;2023-03-01T03:48:42;4.60;61.20
64888;DHT22;51386;53.082;8.816;2023-03-01T03:51:14;4.60;61.10
64888;DHT22;51386;53.082;8.816;2023-03-01T03:53:43;4.60;60.80
64888;DHT22;51386;53.082;8.816;2023-03-01T03:56:11;4.60;61.50
64888;DHT22;51386;53.082;8.816;2023-03-01T03:58:38;4.50;61.80
64888;DHT22;51386;53.082;8.816;2023-03-01T04:01:06;4.50;62.40
64888;DHT22;51386;53.082;8.816;2023-03-01T04:03:33;4.60;63.00
64888;DHT22;51386;53.082;8.816;2023-03-01T04:06:02;4.60;62.30
64888;DHT22;51386;53.082;8.816;2023-03-01T04:08:32;4.60;62.10
64888;DHT22;51386;53.082;8.816;2023-03-01T04:11:00;4.50;62.10
64888;DHT22;51386;53.082;8.816;2023-03-01T04:14:07;4.50;62.30
64888;DHT22;51386;53.082;8.816;2023-03-01T04:16:34;4.40;62.20
64888;DHT22;51386;53.082;8.816;2023-03-01T04:19:01;4.40;63.00
64888;DHT22;51386;53.082;8.816;2023-03-01T04:21:28;4.40;63.70
64888;DHT22;51386;53.082;8.816;2023-03-01T04:23:56;4.40;63.40
64888;DHT22;51386;53.082;8.816;2023-03-01T04:26:23;4.40;63.00
64888;DHT22;51386;53.082;8.816;2023-03-01T04:28:50;4.40;63.20
64888;DHT22;51386;53.082;8.816;2023-03-01T04:31:18;4.40;63.40
64888;DHT22;51386;53.082;8.816;2023-03-01T04:33:49;4.30;63.20
64888;DHT22;51386;53.082;8.816;2023-03-01T04:36:19;4.30;63.40
64888;DHT22;51386;53.082;8.816;2023-03-01T04:38:47;4.20;64.10
64888;DHT22;51386;53.082;8.816;2023-03-01T04:41:18;4.20;63.70
64888;DHT22;51386;53.082;8.816;2023-03-01T04:43:47;4.20;63.80
64888;DHT22;51386;53.082;8.816;2023-03-01T04:46:16;4.20;64.00
64888;DHT22;51386;53.082;8.816;2023-03-01T04:48:45;4.30;64.00
64888;DHT22;51386;53.082;8.816;2023-03-01T04:51:16;4.30;63.70
64888;DHT22;51386;53.082;8.816;2023-03-01T04:53:44;4.30;63.40
64888;DHT22;51386;53.082;8.816;2023-03-01T04:56:11;4.30;63.50
64888;DHT22;51386;53.082;8.816;2023-03-01T04:58:42;4.30;63.20
64888;DHT22;51386;53.082;8.816;2023-03-01T05:01:10;4.30;63.50
64888;DHT22;51386;53.082;8.816;2023-03-01T05:03:42;4.40;63.70
64888;DHT22;51386;53.082;8.816;2023-03-01T05:06:10;4.50;63.30
64888;DHT22;51386;53.082;8.816;2023-03-01T05:08:38;4.50;62.90
64888;DHT22;51386;53.082;8.816;2023-03-01T05:11:06;4.50;62.80
64888;DHT22;51386;53.082;8.816;2023-03-01T05:13:36;4.50;62.40
64888;DHT22;51386;53.082;8.816;2023-03-01T05:16:07;4.40;61.90
64888;DHT22;51386;53.082;8.816;2023-03-01T05:18:38;4.40;61.90
64888;DHT22;51386;53.082;8.816;2023-03-01T05:21:08;4.30;62.20
64888;DHT22;51386;53.082;8.816;2023-03-01T05:23:36;4.20;62.30
64888;DHT22;51386;53.082;8.816;2023-03-01T05:26:05;4.10;63.00
64888;DHT22;51386;53.082;8.816;2023-03-01T05:28:37;4.00;63.10
64888;DHT22;51386;53.082;8.816;2023-03-01T05:31:06;4.00;63.80
64888;DHT22;51386;53.082;8.816;2023-03-01T05:33:36;3.90;64.40
64888;DHT22;51386;53.082;8.816;2023-03-01T05:36:05;4.00;64.40
64888;DHT22;51386;53.082;8.816;2023-03-01T05:38:34;3.90;64.50
64888;DHT22;51386;53.082;8.816;2023-03-01T05:41:01;3.90;64.40
64888;DHT22;51386;53.082;8.816;2023-03-01T05:43:30;3.90;64.90
64888;DHT22;51386;53.082;8.816;2023-03-01T05:46:01;3.90;64.90
64888;DHT22;51386;53.082;8.816;2023-03-01T05:48:29;3.80;64.70
64888;DHT22;51386;53.082;8.816;2023-03-01T05:50:59;3.80;64.50
64888;DHT22;51386;53.082;8.816;2023-03-01T05:53:27;3.80;64.10
64888;DHT22;51386;53.082;8.816;2023-03-01T05:55:54;3.70;64.10
64888;DHT22;51386;53.082;8.816;2023-03-01T05:58:21;3.70;64.20
64888;DHT22;51386;53.082;8.816;2023-03-01T06:00:48;3.60;64.90
64888;DHT22;51386;53.082;8.816;2023-03-01T06:03:17;3.60;65.30
64888;DHT22;51386;53.082;8.816;2023-03-01T06:05:45;3.60;65.60
64888;DHT22;51386;53.082;8.816;2023-03-01T06:08:14;3.60;65.70
64888;DHT22;51386;53.082;8.816;2023-03-01T06:10:41;3.60;66.30
64888;DHT22;51386;53.082;8.816;2023-03-01T06:13:08;3.50;66.00
64888;DHT22;51386;53.082;8.816;2023-03-01T06:15:35;3.50;66.00
64888;DHT22;51386;53.082;8.816;2023-03-01T06:18:02;3.50;66.10
64888;DHT22;51386;53.082;8.816;2023-03-01T06:20:29;3.60;66.20
64888;DHT22;51386;53.082;8.816;2023-03-01T06:22:58;3.60;66.00
64888;DHT22;51386;53.082;8.816;2023-03-01T06:25:27;3.60;66.10
64888;DHT22;51386;53.082;8.816;2023-03-01T06:27:55;3.60;65.90
64888;DHT22;51386;53.082;8.816;2023-03-01T06:30:23;3.60;65.80
64888;DHT22;51386;53.082;8.816;2023-03-01T06:32:52;3.60;65.50
64888;DHT22;51386;53.082;8.816;2023-03-01T06:35:19;3.60;65.30
64888;DHT22;51386;53.082;8.816;2023-03-01T06:37:47;3.60;65.40
64888;DHT22;51386;53.082;8.816;2023-03-01T06:40:16;3.60;65.50
64888;DHT22;51386;53.082;8.816;2023-03-01T06:42:48;3.60;65.70
64888;DHT22;51386;53.082;8.816;2023-03-01T06:45:17;3.60;65.70
64888;DHT22;51386;53.082;8.816;2023-03-01T06:47:46;3.50;65.80
64888;DHT22;51386;53.082;8.816;2023-03-01T06:50:15;3.50;66.00
64888;DHT22;51386;53.082;8.816;2023-03-01T06:52:43;3.50;66.30
64888;DHT22;51386;53.082;8.816;2023-03-01T06:55:11;3.50;66.50
64888;DHT22;51386;53.082;8.816;2023-03-01T06:57:40;3.50;66.50
64888;DHT22;51386;53.082;8.816;2023-03-01T07:00:08;3.60;66.60
64888;DHT22;51386;53.082;8.816;2023-03-01T07:02:36;3.60;66.20
64888;DHT22;51386;53.082;8.816;2023-03-01T07:05:03;3.60;66.30
64888;DHT22;51386;53.082;8.816;2023-03-01T07:07:31;3.70;66.50
64888;DHT22;51386;53.082;8.816;2023-03-01T07:09:58;3.70;66.20
64888;DHT22;51386;53.082;8.816;2023-03-01T07:12:25;3.80;66.20
64888;DHT22;51386;53.082;8.816;2023-03-01T07:14:53;3.80;66.50
64888;DHT22;51386;53.082;8.816;2023-03-01T07:17:20;3.90;66.60
64888;DHT22;51386;53.082;8.816;2023-03-01T07:19:47;4.00;66.80
64888;DHT22;51386;53.082;8.816;2023-03-01T07:22:14;4.10;66.70
64888;DHT22;51386;53.082;8.816;2023-03-01T07:24:41;4.30;66.60
64888;DHT22;51386;53.082;8.816;2023-03-01T07:27:09;4.50;66.00
64888;DHT22;51386;53.082;8.816;2023-03-01T07:29:36;4.70;65.40
64888;DHT22;51386;53.082;8.816;2023-03-01T07:32:05;4.80;64.90
64888;DHT22;51386;53.082;8.816;2023-03-01T07:34:33;5.00;64.60
64888;DHT22;51386;53.082;8.816;2023-03-01T07:37:00;5.20;64.30
64888;DHT22;51386;53.082;8.816;2023-03-01T07:39:27;5.40;63.80
64888;DHT22;51386;53.082;8.816;2023-03-01T07:41:54;5.50;63.40
64888;DHT22;51386;53.082;8.816;2023-03-01T07:44:21;5.70;63.00
64888;DHT22;51386;53.082;8.816;2023-03-01T07:46:48;5.80;62.20
64888;DHT22;51386;53.082;8.816;2023-03-01T07:49:16;5.90;61.40
64888;DHT22;51386;53.082;8.816;2023-03-01T07:51:43;5.90;61.30
64888;DHT22;51386;53.082;8.816;2023-03-01T07:54:10;5.80;61.40
64888;DHT22;51386;53.082;8.816;2023-03-01T07:56:37;5.90;61.80
64888;DHT22;51386;53.082;8.816;2023-03-01T07:59:04;6.00;61.80
64888;DHT22;51386;53.082;8.816;2023-03-01T08:01:31;6.10;61.60
64888;DHT22;51386;53.082;8.816;2023-03-01T08:03:58;6.20;61.40
64888;DHT22;51386;53.082;8.816;2023-03-01T08:06:26;6.30;61.20
64888;DHT22;51386;53.082;8.816;2023-03-01T08:08:54;6.40;61.20
64888;DHT22;51386;53.082;8.816;2023-03-01T08:11:24;6.50;61.60
64888;DHT22;51386;53.082;8.816;2023-03-01T08:13:52;6.60;60.60
64888;DHT22;51386;53.082;8.816;2023-03-01T08:16:20;6.60;60.30
64888;DHT22;51386;53.082;8.816;2023-03-01T08:18:47;6.70;60.20
64888;DHT22;51386;53.082;8.816;2023-03-01T08:21:16;6.70;60.20
64888;DHT22;51386;53.082;8.816;2023-03-01T08:23:45;6.80;60.40
64888;DHT22;51386;53.082;8.816;2023-03-01T08:26:14;6.90;60.70
64888;DHT22;51386;53.082;8.816;2023-03-01T08:28:45;7.10;60.60
64888;DHT22;51386;53.082;8.816;2023-03-01T08:31:14;7.40;60.20
64888;DHT22;51386;53.082;8.816;2023-03-01T08:33:42;7.70;58.90
64888;DHT22;51386;53.082;8.816;2023-03-01T08:36:10;8.00;58.20
64888;DHT22;51386;53.082;8.816;2023-03-01T08:38:37;8.20;57.60
64888;DHT22;51386;53.082;8.816;2023-03-01T08:41:05;8.50;57.10
64888;DHT22;51386;53.082;8.816;2023-03-01T08:43:32;8.70;56.20
64888;DHT22;51386;53.082;8.816;2023-03-01T08:45:59;8.80;55.40
64888;DHT22;51386;53.082;8.816;2023-03-01T08:48:27;9.00;54.90
64888;DHT22;51386;53.082;8.816;2023-03-01T08:50:55;9.10;53.70
64888;DHT22;51386;53.082;8.816;2023-03-01T08:53:22;9.20;52.50
64888;DHT22;51386;53.082;8.816;2023-03-01T08:55:49;9.30;51.70
64888;DHT22;51386;53.082;8.816;2023-03-01T08:58:17;9.40;51.60
64888;DHT22;51386;53.082;8.816;2023-03-01T09:00:44;9.60;51.80
64888;DHT22;51386;53.082;8.816;2023-03-01T09:03:11;9.90;51.30
64888;DHT22;51386;53.082;8.816;2023-03-01T09:05:38;10.20;49.70
64888;DHT22;51386;53.082;8.816;2023-03-01T09:08:05;10.60;49.10
64888;DHT22;51386;53.082;8.816;2023-03-01T09:10:37;11.10;47.80
64888;DHT22;51386;53.082;8.816;2023-03-01T09:13:05;11.70;46.10
64888;DHT22;51386;53.082;8.816;2023-03-01T09:15:35;12.30;44.00
64888;DHT22;51386;53.082;8.816;2023-03-01T09:18:09;12.90;43.00
64888;DHT22;51386;53.082;8.816;2023-03-01T09:20:36;13.50;41.60
64888;DHT22;51386;53.082;8.816;2023-03-01T09:23:03;14.10;40.10
64888;DHT22;51386;53.082;8.816;2023-03-01T09:25:30;14.70;38.70
64888;DHT22;51386;53.082;8.816;2023-03-01T09:27:57;15.20;36.60
64888;DHT22;51386;53.082;8.816;2023-03-01T09:30:24;15.60;35.00
64888;DHT22;51386;53.082;8.816;2023-03-01T09:32:52;16.00;34.20
64888;DHT22;51386;53.082;8.816;2023-03-01T09:35:19;16.30;34.00
64888;DHT22;51386;53.082;8.816;2023-03-01T09:37:49;16.70;32.90
64888;DHT22;51386;53.082;8.816;2023-03-01T09:40:18;17.00;31.00
64888;DHT22;51386;53.082;8.816;2023-03-01T09:42:53;17.40;31.10
64888;DHT22;51386;53.082;8.816;2023-03-01T09:45:28;17.80;30.20
64888;DHT22;51386;53.082;8.816;2023-03-01T09:48:01;18.10;29.80
64888;DHT22;51386;53.082;8.816;2023-03-01T09:50:38;18.40;29.20
64888;DHT22;51386;53.082;8.816;2023-03-01T09:53:11;18.60;28.80
64888;DHT22;51386;53.082;8.816;2023-03-01T09:55:44;18.80;28.60
64888;DHT22;51386;53.082;8.816;2023-03-01T09:58:37;19.00;28.50
64888;DHT22;51386;53.082;8.816;2023-03-01T10:01:29;19.30;27.70
64888;DHT22;51386;53.082;8.816;2023-03-01T10:04:27;19.70;27.30
64888;DHT22;51386;53.082;8.816;2023-03-01T10:07:16;20.10;26.80
64888;DHT22;51386;53.082;8.816;2023-03-01T10:09:53;20.40;25.70
64888;DHT22;51386;53.082;8.816;2023-03-01T10:12:24;20.70;25.00
64888;DHT22;51386;53.082;8.816;2023-03-01T10:14:57;21.00;24.70
64888;DHT22;51386;53.082;8.816;2023-03-01T10:17:34;21.30;24.20
64888;DHT22;51386;53.082;8.816;2023-03-01T10:20:21;21.40;23.90
64888;DHT22;51386;53.082;8.816;2023-03-01T10:22:51;21.60;23.70
64888;DHT22;51386;53.082;8.816;2023-03-01T10:25:36;21.70;23.60
64888;DHT22;51386;53.082;8.816;2023-03-01T10:28:17;21.80;22.80
64888;DHT22;51386;53.082;8.816;2023-03-01T10:30:50;21.80;23.40
64888;DHT22;51386;53.082;8.816;2023-03-01T10:33:22;21.90;23.40
64888;DHT22;51386;53.082;8.816;2023-03-01T10:35:52;22.00;23.60
64888;DHT22;51386;53.082;8.816;2023-03-01T10:38:20;22.20;23.40
64888;DHT22;51386;53.082;8.816;2023-03-01T10:40:53;22.30;22.90
64888;DHT22;51386;53.082;8.816;2023-03-01T10:43:24;22.30;23.40
64888;DHT22;51386;53.082;8.816;2023-03-01T10:45:53;22.40;23.40
64888;DHT22;51386;53.082;8.816;2023-03-01T10:48:22;22.30;23.50
64888;DHT22;51386;53.082;8.816;2023-03-01T10:51:05;22.10;23.50
64888;DHT22;51386;53.082;8.816;2023-03-01T10:53:36;21.80;23.90
64888;DHT22;51386;53.082;8.816;2023-03-01T10:56:09;21.40;24.30
64888;DHT22;51386;53.082;8.816;2023-03-01T10:58:38;20.90;24.70
64888;DHT22;51386;53.082;8.816;2023-03-01T11:01:25;20.50;25.40
64888;DHT22;51386;53.082;8.816;2023-03-01T11:04:10;20.10;26.00
64888;DHT22;51386;53.082;8.816;2023-03-01T11:06:43;19.80;26.60
64888;DHT22;51386;53.082;8.816;2023-03-01T11:09:24;19.50;27.20
64888;DHT22;51386;53.082;8.816;2023-03-01T11:11:55;19.20;27.80
64888;DHT22;51386;53.082;8.816;2023-03-01T11:14:24;19.00;28.30
64888;DHT22;51386;53.082;8.816;2023-03-01T11:17:01;18.60;28.60
64888;DHT22;51386;53.082;8.816;2023-03-01T11:19:31;18.40;29.20
64888;DHT22;51386;53.082;8.816;2023-03-01T11:22:03;18.20;29.30
64888;DHT22;51386;53.082;8.816;2023-03-01T11:24:39;18.10;29.60
64888;DHT22;51386;53.082;8.816;2023-03-01T11:27:17;18.10;30.00
64888;DHT22;51386;53.082;8.816;2023-03-01T11:29:52;17.90;30.10
64888;DHT22;51386;53.082;8.816;2023-03-01T11:32:26;17.70;30.40
64888;DHT22;51386;53.082;8.816;2023-03-01T11:35:03;17.60;30.90
64888;DHT22;51386;53.082;8.816;2023-03-01T11:37:41;17.30;31.70
64888;DHT22;51386;53.082;8.816;2023-03-01T11:40:24;17.10;32.70
64888;DHT22;51386;53.082;8.816;2023-03-01T11:43:11;17.00;32.90
64888;DHT22;51386;53.082;8.816;2023-03-01T11:45:55;17.10;33.40
64888;DHT22;51386;53.082;8.816;2023-03-01T11:48:47;17.20;33.80
64888;DHT22;51386;53.082;8.816;2023-03-01T11:51:41;17.40;33.70
64888;DHT22;51386;53.082;8.816;2023-03-01T11:54:27;17.60;33.60
64888;DHT22;51386;53.082;8.816;2023-03-01T11:57:12;17.70;33.10
64888;DHT22;51386;53.082;8.816;2023-03-01T12:00:03;17.70;33.00
64888;DHT22;51386;53.082;8.816;2023-03-01T12:05:55;17.60;33.30
64888;DHT22;51386;53.082;8.816;2023-03-01T12:08:50;17.50;33.60
64888;DHT22;51386;53.082;8.816;2023-03-01T12:11:39;17.50;33.80
64888;DHT22;51386;53.082;8.816;2023-03-01T12:14:34;17.50;33.90
64888;DHT22;51386;53.082;8.816;2023-03-01T12:17:44;17.30;34.10
64888;DHT22;51386;53.082;8.816;2023-03-01T12:20:27;17.10;34.30
64888;DHT22;51386;53.082;8.816;2023-03-01T12:23:16;17.00;34.80
64888;DHT22;51386;53.082;8.816;2023-03-01T12:26:07;16.70;34.90
64888;DHT22;51386;53.082;8.816;2023-03-01T12:28:57;16.50;35.40
64888;DHT22;51386;53.082;8.816;2023-03-01T12:31:55;16.20;35.90
64888;DHT22;51386;53.082;8.816;2023-03-01T12:34:56;16.00;36.60
64888;DHT22;51386;53.082;8.816;2023-03-01T12:37:39;15.90;36.90
64888;DHT22;51386;53.082;8.816;2023-03-01T12:40:34;15.80;37.10
64888;DHT22;51386;53.082;8.816;2023-03-01T12:43:30;15.90;37.20
64888;DHT22;51386;53.082;8.816;2023-03-01T12:46:14;16.00;37.50
64888;DHT22;51386;53.082;8.816;2023-03-01T12:48:59;16.10;37.70
64888;DHT22;51386;53.082;8.816;2023-03-01T12:51:35;16.20;37.40
64888;DHT22;51386;53.082;8.816;2023-03-01T12:54:11;16.30;37.40
64888;DHT22;51386;53.082;8.816;2023-03-01T12:56:42;16.40;37.30
64888;DHT22;51386;53.082;8.816;2023-03-01T12:59:30;16.40;37.10
64888;DHT22;51386;53.082;8.816;2023-03-01T13:02:24;16.50;37.10
64888;DHT22;51386;53.082;8.816;2023-03-01T13:05:18;16.70;37.00
64888;DHT22;51386;53.082;8.816;2023-03-01T13:07:55;16.70;36.80
64888;DHT22;51386;53.082;8.816;2023-03-01T13:10:33;16.80;36.80
64888;DHT22;51386;53.082;8.816;2023-03-01T13:13:14;16.80;37.10
64888;DHT22;51386;53.082;8.816;2023-03-01T13:15:46;17.00;37.00
64888;DHT22;51386;53.082;8.816;2023-03-01T13:18:30;17.20;36.40
64888;DHT22;51386;53.082;8.816;2023-03-01T13:21:03;17.40;36.00
64888;DHT22;51386;53.082;8.816;2023-03-01T13:23:35;17.60;36.00
64888;DHT22;51386;53.082;8.816;2023-03-01T13:26:14;17.80;35.30
64888;DHT22;51386;53.082;8.816;2023-03-01T13:29:00;17.80;34.90
64888;DHT22;51386;53.082;8.816;2023-03-01T13:37:33;17.70;35.30
64888;DHT22;51386;53.082;8.816;2023-03-01T13:40:08;17.50;35.20
64888;DHT22;51386;53.082;8.816;2023-03-01T13:43:32;17.60;35.50
64888;DHT22;51386;53.082;8.816;2023-03-01T13:46:08;17.70;35.20
64888;DHT22;51386;53.082;8.816;2023-03-01T13:48:39;17.80;35.00
64888;DHT22;51386;53.082;8.816;2023-03-01T13:51:10;17.80;34.80
64888;DHT22;51386;53.082;8.816;2023-03-01T13:53:41;17.60;34.80
64888;DHT22;51386;53.082;8.816;2023-03-01T13:56:15;17.40;35.00
64888;DHT22;51386;53.082;8.816;2023-03-01T13:58:50;17.40;35.50
64888;DHT22;51386;53.082;8.816;2023-03-01T14:01:28;17.40;35.70
64888;DHT22;51386;53.082;8.816;2023-03-01T14:03:58;17.50;35.90
64888;DHT22;51386;53.082;8.816;2023-03-01T14:06:29;17.70;36.00
64888;DHT22;51386;53.082;8.816;2023-03-01T14:09:04;17.80;35.30
64888;DHT22;51386;53.082;8.816;2023-03-01T14:11:57;17.80;35.10
64888;DHT22;51386;53.082;8.816;2023-03-01T14:14:44;17.70;35.40
64888;DHT22;51386;53.082;8.816;2023-03-01T14:17:27;17.80;35.50
64888;DHT22;51386;53.082;8.816;2023-03-01T14:20:11;17.80;35.50
64888;DHT22;51386;53.082;8.816;2023-03-01T14:22:44;17.90;35.80
64888;DHT22;51386;53.082;8.816;2023-03-01T14:25:24;18.20;35.90
64888;DHT22;51386;53.082;8.816;2023-03-01T14:27:56;18.50;35.80
64888;DHT22;51386;53.082;8.816;2023-03-01T14:30:30;18.60;35.50
64888;DHT22;51386;53.082;8.816;2023-03-01T14:33:02;18.70;34.60
64888;DHT22;51386;53.082;8.816;2023-03-01T14:35:33;18.80;34.40
64888;DHT22;51386;53.082;8.816;2023-03-01T14:38:03;18.80;34.20
64888;DHT22;51386;53.082;8.816;2023-03-01T14:40:33;19.00;34.00
64888;DHT22;51386;53.082;8.816;2023-03-01T14:43:10;19.00;33.40
64888;DHT22;51386;53.082;8.816;2023-03-01T14:45:40;19.10;33.40
64888;DHT22;51386;53.082;8.816;2023-03-01T14:48:15;19.10;33.40
64888;DHT22;51386;53.082;8.816;2023-03-01T14:50:43;18.90;33.30
64888;DHT22;51386;53.082;8.816;2023-03-01T14:53:17;18.60;33.40
64888;DHT22;51386;53.082;8.816;2023-03-01T14:55:50;18.20;33.80
64888;DHT22;51386;53.082;8.816;2023-03-01T14:58:20;17.90;34.40
64888;DHT22;51386;53.082;8.816;2023-03-01T15:00:51;17.80;35.00
64888;DHT22;51386;53.082;8.816;2023-03-01T15:03:25;17.60;35.40
64888;DHT22;51386;53.082;8.816;2023-03-01T15:05:57;17.40;35.40
64888;DHT22;51386;53.082;8.816;2023-03-01T15:08:27;17.10;35.60
64888;DHT22;51386;53.082;8.816;2023-03-01T15:11:02;16.80;36.20
64888;DHT22;51386;53.082;8.816;2023-03-01T15:13:35;16.40;36.70
64888;DHT22;51386;53.082;8.816;2023-03-01T15:16:05;16.00;37.70
64888;DHT22;51386;53.082;8.816;2023-03-01T15:18:35;15.70;38.60
64888;DHT22;51386;53.082;8.816;2023-03-01T15:21:08;15.40;39.60
64888;DHT22;51386;53.082;8.816;2023-03-01T15:23:48;15.00;40.30
64888;DHT22;51386;53.082;8.816;2023-03-01T15:26:25;14.70;40.80
64888;DHT22;51386;53.082;8.816;2023-03-01T15:28:58;14.60;41.90
64888;DHT22;51386;53.082;8.816;2023-03-01T15:31:27;14.40;42.30
64888;DHT22;51386;53.082;8.816;2023-03-01T15:34:22;14.20;42.60
64888;DHT22;51386;53.082;8.816;2023-03-01T15:36:52;14.10;43.10
64888;DHT22;51386;53.082;8.816;2023-03-01T15:39:54;13.90;43.60
64888;DHT22;51386;53.082;8.816;2023-03-01T15:42:36;13.70;44.20
64888;DHT22;51386;53.082;8.816;2023-03-01T15:45:08;13.60;45.30
64888;DHT22;51386;53.082;8.816;2023-03-01T15:47:39;13.40;45.90
64888;DHT22;51386;53.082;8.816;2023-03-01T15:50:15;13.30;46.10
64888;DHT22;51386;53.082;8.816;2023-03-01T15:52:45;13.20;46.60
64888;DHT22;51386;53.082;8.816;2023-03-01T15:55:18;13.10;46.70
64888;DHT22;51386;53.082;8.816;2023-03-01T15:57:47;13.00;47.40
64888;DHT22;51386;53.082;8.816;2023-03-01T16:00:16;12.90;47.20
64888;DHT22;51386;53.082;8.816;2023-03-01T16:02:44;12.80;47.50
64888;DHT22;51386;53.082;8.816;2023-03-01T16:05:20;12.80;48.00
64888;DHT22;51386;53.082;8.816;2023-03-01T16:07:49;12.70;48.70
64888;DHT22;51386;53.082;8.816;2023-03-01T16:10:19;12.70;48.80
64888;DHT22;51386;53.082;8.816;2023-03-01T16:12:47;12.60;49.20
64888;DHT22;51386;53.082;8.816;2023-03-01T16:15:17;12.50;49.30
64888;DHT22;51386;53.082;8.816;2023-03-01T16:17:46;12.50;49.70
64888;DHT22;51386;53.082;8.816;2023-03-01T16:20:13;12.40;49.70
64888;DHT22;51386;53.082;8.816;2023-03-01T16:22:56;12.30;50.00